sensor_id;sensor_type;location;lat;lon;timestamp;temperature;humidity
25963;DHT22;13760;52.588;13.406;2022-12-28T00:00:05;4.10;99.90
25963;DHT22;13760;52.588;13.406;2022-12-28T00:02:30;4.20;99.90
25963;DHT22;13760;52.588;13.406;2022-12-28T00:04:56;4.20;99.90
25963;DHT22;13760;52.588;13.406;2022-12-28T00:07:21;4.20;99.90
25963;DHT22;13760;52.588;13.406;2022-12-28T00:09:47;4.20;99.90
25963;DHT22;13760;52.588;13.406;2022-12-28T00:12:12;4.30;99.90
25963;DHT22;13760;52.588;13.406;2022-12-28T00:14:38;4.30;99.90
25963;DHT22;13760;52.588;13.406;2022-12-28T00:17:06;4.30;99.90
25963;DHT22;13760;52.588;13.406;2022-12-28T00:19:32;4.30;99.90
25963;DHT22;13760;52.588;13.406;2022-12-28T00:21:57;4.30;99.90
25963;DHT22;13760;52.588;13.406;2022-12-28T00:24:24;4.40;99.90
25963;DHT22;13760;52.588;13.406;2022-12-28T00:26:50;4.40;99.90
25963;DHT22;13760;52.588;13.406;2022-12-28T00:29:16;4.40;99.90
25963;DHT22;13760;52.588;13.406;2022-12-28T00:31:42;4.40;99.90
25963;DHT22;13760;52.588;13.406;2022-12-28T00:34:09;4.40;99.90
25963;DHT22;13760;52.588;13.406;2022-12-28T00:36:35;4.40;99.90
25963;DHT22;13760;52.588;13.406;2022-12-28T00:39:01;4.40;99.90
25963;DHT22;13760;52.588;13.406;2022-12-28T00:41:26;4.50;99.90
25963;DHT22;13760;52.588;13.406;2022-12-28T00:43:52;4.50;99.90
25963;DHT22;13760;52.588;13.406;2022-12-28T00:46:17;4.50;99.90
25963;DHT22;13760;52.588;13.406;2022-12-28T00:48:43;4.50;99.90
25963;DHT22;13760;52.588;13.406;2022-12-28T00:51:12;4.50;99.90
25963;DHT22;13760;52.588;13.406;2022-12-28T00:53:38;4.60;99.90
25963;DHT22;13760;52.588;13.406;2022-12-28T00:56:16;4.60;99.90
25963;DHT22;13760;52.588;13.406;2022-12-28T00:58:43;4.60;99.90
25963;DHT22;13760;52.588;13.406;2022-12-28T01:01:17;4.60;99.90
25963;DHT22;13760;52.588;13.406;2022-12-28T01:03:43;4.60;99.90
25963;DHT22;13760;52.588;13.406;2022-12-28T01:06:19;4.60;99.90
25963;DHT22;13760;52.588;13.406;2022-12-28T01:08:45;4.70;99.90
25963;DHT22;13760;52.588;13.406;2022-12-28T01:11:25;4.70;99.90
25963;DHT22;13760;52.588;13.406;2022-12-28T01:13:52;4.70;99.90
25963;DHT22;13760;52.588;13.406;2022-12-28T01:16:21;4.70;99.90
25963;DHT22;13760;52.588;13.406;2022-12-28T01:18:55;4.70;99.90
25963;DHT22;13760;52.588;13.406;2022-12-28T01:21:24;4.80;99.90
25963;DHT22;13760;52.588;13.406;2022-12-28T01:23:53;4.80;99.90
25963;DHT22;13760;52.588;13.406;2022-12-28T01:26:19;4.80;99.90
25963;DHT22;13760;52.588;13.406;2022-12-28T01:28:45;4.80;99.90
25963;DHT22;13760;52.588;13.406;2022-12-28T01:31:15;4.80;99.90
25963;DHT22;13760;52.588;13.406;2022-12-28T01:33:41;4.80;99.90
25963;DHT22;13760;52.588;13.406;2022-12-28T01:36:19;4.80;99.90
25963;DHT22;13760;52.588;13.406;2022-12-28T01:38:46;4.80;99.90
25963;DHT22;13760;52.588;13.406;2022-12-28T01:41:14;4.70;99.90
25963;DHT22;13760;52.588;13.406;2022-12-28T01:51:57;4.80;99.90
25963;DHT22;13760;52.588;13.406;2022-12-28T01:54:24;4.90;99.90
25963;DHT22;13760;52.588;13.406;2022-12-28T01:56:52;4.80;99.90
25963;DHT22;13760;52.588;13.406;2022-12-28T01:59:24;4.90;99.90
25963;DHT22;13760;52.588;13.406;2022-12-28T02:01:51;4.90;99.90
25963;DHT22;13760;52.588;13.406;2022-12-28T02:04:17;4.80;99.90
25963;DHT22;13760;52.588;13.406;2022-12-28T02:06:43;4.80;99.90
25963;DHT22;13760;52.588;13.406;2022-12-28T02:09:19;4.80;99.90
25963;DHT22;13760;52.588;13.406;2022-12-28T02:11:47;4.80;99.90
25963;DHT22;13760;52.588;13.406;2022-12-28T02:14:14;4.80;99.90
25963;DHT22;13760;52.588;13.406;2022-12-28T02:16:40;4.70;99.90
25963;DHT22;13760;52.588;13.406;2022-12-28T02:19:08;4.70;99.90
25963;DHT22;13760;52.588;13.406;2022-12-28T02:30:10;4.50;99.90
25963;DHT22;13760;52.588;13.406;2022-12-28T02:38:47;4.40;99.90
25963;DHT22;13760;52.588;13.406;2022-12-28T02:41:25;4.40;99.90
25963;DHT22;13760;52.588;13.406;2022-12-28T02:43:52;4.40;99.90
25963;DHT22;13760;52.588;13.406;2022-12-28T02:46:25;4.40;99.90
25963;DHT22;13760;52.588;13.406;2022-12-28T02:49:20;4.40;99.90
25963;DHT22;13760;52.588;13.406;2022-12-28T02:58:05;4.40;99.90
25963;DHT22;13760;52.588;13.406;2022-12-28T03:09:38;4.30;99.90
25963;DHT22;13760;52.588;13.406;2022-12-28T03:14:56;4.30;99.90
25963;DHT22;13760;52.588;13.406;2022-12-28T03:17:25;4.20;99.90
25963;DHT22;13760;52.588;13.406;2022-12-28T03:20:17;4.20;99.90
25963;DHT22;13760;52.588;13.406;2022-12-28T03:23:06;4.30;99.90
25963;DHT22;13760;52.588;13.406;2022-12-28T03:25:52;4.20;99.90
25963;DHT22;13760;52.588;13.406;2022-12-28T03:28:40;4.30;99.90
25963;DHT22;13760;52.588;13.406;2022-12-28T03:31:26;4.30;99.90
25963;DHT22;13760;52.588;13.406;2022-12-28T03:33:54;4.30;99.90
25963;DHT22;13760;52.588;13.406;2022-12-28T03:39:42;4.40;99.90
25963;DHT22;13760;52.588;13.406;2022-12-28T03:42:25;4.30;99.90
25963;DHT22;13760;52.588;13.406;2022-12-28T03:47:57;4.40;99.90
25963;DHT22;13760;52.588;13.406;2022-12-28T03:50:25;4.40;99.90
25963;DHT22;13760;52.588;13.406;2022-12-28T03:52:51;4.40;99.90
25963;DHT22;13760;52.588;13.406;2022-12-28T03:55:17;4.30;99.90
25963;DHT22;13760;52.588;13.406;2022-12-28T03:57:43;4.30;99.90
25963;DHT22;13760;52.588;13.406;2022-12-28T04:00:09;4.30;99.90
25963;DHT22;13760;52.588;13.406;2022-12-28T04:02:36;4.30;99.90
25963;DHT22;13760;52.588;13.406;2022-12-28T04:05:02;4.20;99.90
25963;DHT22;13760;52.588;13.406;2022-12-28T04:07:31;4.20;99.90
25963;DHT22;13760;52.588;13.406;2022-12-28T04:09:56;4.10;99.90
25963;DHT22;13760;52.588;13.406;2022-12-28T04:12:22;4.20;99.90
25963;DHT22;13760;52.588;13.406;2022-12-28T04:14:48;4.20;99.90
25963;DHT22;13760;52.588;13.406;2022-12-28T04:17:13;4.20;99.90
25963;DHT22;13760;52.588;13.406;2022-12-28T04:19:39;4.20;99.90
25963;DHT22;13760;52.588;13.406;2022-12-28T04:22:04;4.20;99.90
25963;DHT22;13760;52.588;13.406;2022-12-28T04:24:30;4.10;99.90
25963;DHT22;13760;52.588;13.406;2022-12-28T04:26:55;4.10;99.90
25963;DHT22;13760;52.588;13.406;2022-12-28T04:29:21;4.10;99.90
25963;DHT22;13760;52.588;13.406;2022-12-28T04:31:46;4.10;99.90
25963;DHT22;13760;52.588;13.406;2022-12-28T04:34:12;4.10;99.90
25963;DHT22;13760;52.588;13.406;2022-12-28T04:36:38;4.10;99.90
25963;DHT22;13760;52.588;13.406;2022-12-28T04:39:04;4.00;99.90
25963;DHT22;13760;52.588;13.406;2022-12-28T04:41:30;4.00;99.90
25963;DHT22;13760;52.588;13.406;2022-12-28T04:43:56;4.00;99.90
25963;DHT22;13760;52.588;13.406;2022-12-28T04:46:22;4.00;99.90
25963;DHT22;13760;52.588;13.406;2022-12-28T04:48:49;4.10;99.90
25963;DHT22;13760;52.588;13.406;2022-12-28T04:53:43;4.00;99.90
25963;DHT22;13760;52.588;13.406;2022-12-28T04:56:10;4.00;99.90
25963;DHT22;13760;52.588;13.406;2022-12-28T04:58:36;4.00;99.90
25963;DHT22;13760;52.588;13.406;2022-12-28T05:01:07;4.00;99.90
25963;DHT22;13760;52.588;13.406;2022-12-28T05:03:32;4.00;99.90
25963;DHT22;13760;52.588;13.406;2022-12-28T05:06:02;4.00;99.90
25963;DHT22;13760;52.588;13.406;2022-12-28T05:08:36;4.00;99.90
25963;DHT22;13760;52.588;13.406;2022-12-28T05:11:04;4.00;99.90
25963;DHT22;13760;52.588;13.406;2022-12-28T05:13:30;4.00;99.90
25963;DHT22;13760;52.588;13.406;2022-12-28T05:16:00;4.00;99.90
25963;DHT22;13760;52.588;13.406;2022-12-28T05:18:26;4.00;99.90
25963;DHT22;13760;52.588;13.406;2022-12-28T05:21:11;4.00;99.90
25963;DHT22;13760;52.588;13.406;2022-12-28T05:23:37;4.00;99.90
25963;DHT22;13760;52.588;13.406;2022-12-28T05:26:04;4.00;99.90
25963;DHT22;13760;52.588;13.406;2022-12-28T05:28:31;4.00;99.90
25963;DHT22;13760;52.588;13.406;2022-12-28T05:31:05;4.00;99.90
25963;DHT22;13760;52.588;13.406;2022-12-28T05:33:32;4.00;99.90
25963;DHT22;13760;52.588;13.406;2022-12-28T05:36:12;4.00;99.90
25963;DHT22;13760;52.588;13.406;2022-12-28T05:38:38;4.00;99.90
25963;DHT22;13760;52.588;13.406;2022-12-28T05:43:41;4.10;99.90
25963;DHT22;13760;52.588;13.406;2022-12-28T05:46:15;4.00;99.90
25963;DHT22;13760;52.588;13.406;2022-12-28T05:48:43;4.00;99.90
25963;DHT22;13760;52.588;13.406;2022-12-28T05:51:13;4.10;99.90
25963;DHT22;13760;52.588;13.406;2022-12-28T05:53:40;4.10;99.90
25963;DHT22;13760;52.588;13.406;2022-12-28T05:56:14;4.10;99.90
25963;DHT22;13760;52.588;13.406;2022-12-28T05:58:40;4.00;99.90
25963;DHT22;13760;52.588;13.406;2022-12-28T06:01:08;4.10;99.90
25963;DHT22;13760;52.588;13.406;2022-12-28T06:03:35;4.00;99.90
25963;DHT22;13760;52.588;13.406;2022-12-28T06:06:05;4.00;99.90
25963;DHT22;13760;52.588;13.406;2022-12-28T06:08:31;4.00;99.90
25963;DHT22;13760;52.588;13.406;2022-12-28T06:11:01;4.00;99.90
25963;DHT22;13760;52.588;13.406;2022-12-28T06:13:28;4.00;99.90
25963;DHT22;13760;52.588;13.406;2022-12-28T06:15:54;4.10;99.90
25963;DHT22;13760;52.588;13.406;2022-12-28T06:18:19;4.10;99.90
25963;DHT22;13760;52.588;13.406;2022-12-28T06:20:45;4.10;99.90
25963;DHT22;13760;52.588;13.406;2022-12-28T06:23:10;4.10;99.90
25963;DHT22;13760;52.588;13.406;2022-12-28T06:25:36;4.20;99.90
25963;DHT22;13760;52.588;13.406;2022-12-28T06:28:05;4.20;99.90
25963;DHT22;13760;52.588;13.406;2022-12-28T06:30:30;4.20;99.90
25963;DHT22;13760;52.588;13.406;2022-12-28T06:32:56;4.20;99.90
25963;DHT22;13760;52.588;13.406;2022-12-28T06:35:22;4.20;99.90
25963;DHT22;13760;52.588;13.406;2022-12-28T06:37:48;4.30;99.90
25963;DHT22;13760;52.588;13.406;2022-12-28T06:40:13;4.30;99.90
25963;DHT22;13760;52.588;13.406;2022-12-28T06:42:39;4.30;99.90
25963;DHT22;13760;52.588;13.406;2022-12-28T06:45:05;4.30;99.90
25963;DHT22;13760;52.588;13.406;2022-12-28T06:47:31;4.30;99.90
25963;DHT22;13760;52.588;13.406;2022-12-28T06:49:58;4.40;99.90
25963;DHT22;13760;52.588;13.406;2022-12-28T06:52:23;4.40;99.90
25963;DHT22;13760;52.588;13.406;2022-12-28T06:54:49;4.40;99.90
25963;DHT22;13760;52.588;13.406;2022-12-28T06:57:14;4.40;99.90
25963;DHT22;13760;52.588;13.406;2022-12-28T06:59:40;4.30;99.90
25963;DHT22;13760;52.588;13.406;2022-12-28T07:02:05;4.30;99.90
25963;DHT22;13760;52.588;13.406;2022-12-28T07:04:31;4.30;99.90
25963;DHT22;13760;52.588;13.406;2022-12-28T07:06:56;4.20;99.90
25963;DHT22;13760;52.588;13.406;2022-12-28T07:09:22;4.30;99.90
25963;DHT22;13760;52.588;13.406;2022-12-28T07:11:51;4.30;99.90
25963;DHT22;13760;52.588;13.406;2022-12-28T07:14:16;4.30;99.90
25963;DHT22;13760;52.588;13.406;2022-12-28T07:16:43;4.20;99.90
25963;DHT22;13760;52.588;13.406;2022-12-28T07:19:09;4.20;99.90
25963;DHT22;13760;52.588;13.406;2022-12-28T07:21:36;4.20;99.90
25963;DHT22;13760;52.588;13.406;2022-12-28T07:24:03;4.20;99.90
25963;DHT22;13760;52.588;13.406;2022-12-28T07:26:30;4.20;99.90
25963;DHT22;13760;52.588;13.406;2022-12-28T07:28:58;4.30;99.90
25963;DHT22;13760;52.588;13.406;2022-12-28T07:31:29;4.30;99.90
25963;DHT22;13760;52.588;13.406;2022-12-28T07:33:56;4.40;99.90
25963;DHT22;13760;52.588;13.406;2022-12-28T07:36:24;4.40;99.90
25963;DHT22;13760;52.588;13.406;2022-12-28T07:38:51;4.40;99.90
25963;DHT22;13760;52.588;13.406;2022-12-28T07:41:21;4.40;99.90
25963;DHT22;13760;52.588;13.406;2022-12-28T07:43:47;4.40;99.90
25963;DHT22;13760;52.588;13.406;2022-12-28T07:46:18;4.50;99.90
25963;DHT22;13760;52.588;13.406;2022-12-28T07:48:44;4.50;99.90
25963;DHT22;13760;52.588;13.406;2022-12-28T07:51:17;4.50;99.90
25963;DHT22;13760;52.588;13.406;2022-12-28T07:53:45;4.50;99.90
25963;DHT22;13760;52.588;13.406;2022-12-28T07:56:12;4.50;99.90
25963;DHT22;13760;52.588;13.406;2022-12-28T07:58:38;4.50;99.90
25963;DHT22;13760;52.588;13.406;2022-12-28T08:03:31;4.50;99.90
25963;DHT22;13760;52.588;13.406;2022-12-28T08:06:02;4.50;99.90
25963;DHT22;13760;52.588;13.406;2022-12-28T08:08:28;4.60;99.90
25963;DHT22;13760;52.588;13.406;2022-12-28T08:10:53;4.60;99.90
25963;DHT22;13760;52.588;13.406;2022-12-28T08:13:19;4.60;99.90
25963;DHT22;13760;52.588;13.406;2022-12-28T08:15:53;4.60;99.90
25963;DHT22;13760;52.588;13.406;2022-12-28T08:18:18;4.60;99.90
25963;DHT22;13760;52.588;13.406;2022-12-28T08:20:44;4.70;99.90
25963;DHT22;13760;52.588;13.406;2022-12-28T08:23:09;4.70;99.90
25963;DHT22;13760;52.588;13.406;2022-12-28T08:25:35;4.80;99.90
25963;DHT22;13760;52.588;13.406;2022-12-28T08:28:00;4.80;99.90
25963;DHT22;13760;52.588;13.406;2022-12-28T08:30:26;4.80;99.90
25963;DHT22;13760;52.588;13.406;2022-12-28T08:32:51;4.90;99.90
25963;DHT22;13760;52.588;13.406;2022-12-28T08:35:17;4.90;99.90
25963;DHT22;13760;52.588;13.406;2022-12-28T08:37:42;5.00;99.90
25963;DHT22;13760;52.588;13.406;2022-12-28T08:40:08;5.00;99.90
25963;DHT22;13760;52.588;13.406;2022-12-28T08:42:34;5.00;99.90
25963;DHT22;13760;52.588;13.406;2022-12-28T08:45:22;5.00;99.90
25963;DHT22;13760;52.588;13.406;2022-12-28T08:47:48;5.10;99.90
25963;DHT22;13760;52.588;13.406;2022-12-28T08:50:13;5.20;99.90
25963;DHT22;13760;52.588;13.406;2022-12-28T08:52:39;5.10;99.90
25963;DHT22;13760;52.588;13.406;2022-12-28T08:55:05;5.20;99.90
25963;DHT22;13760;52.588;13.406;2022-12-28T08:57:32;5.20;99.90
25963;DHT22;13760;52.588;13.406;2022-12-28T08:59:57;5.20;99.90
25963;DHT22;13760;52.588;13.406;2022-12-28T09:02:23;5.20;99.90
25963;DHT22;13760;52.588;13.406;2022-12-28T09:04:48;5.30;99.90
25963;DHT22;13760;52.588;13.406;2022-12-28T09:07:14;5.30;99.90
25963;DHT22;13760;52.588;13.406;2022-12-28T09:09:39;5.40;99.90
25963;DHT22;13760;52.588;13.406;2022-12-28T09:12:05;5.40;99.90
25963;DHT22;13760;52.588;13.406;2022-12-28T09:14:31;5.40;99.90
25963;DHT22;13760;52.588;13.406;2022-12-28T09:16:57;5.50;99.90
25963;DHT22;13760;52.588;13.406;2022-12-28T09:19:23;5.50;99.90
25963;DHT22;13760;52.588;13.406;2022-12-28T09:21:48;5.50;99.90
25963;DHT22;13760;52.588;13.406;2022-12-28T09:24:16;5.50;99.90
25963;DHT22;13760;52.588;13.406;2022-12-28T09:26:42;5.50;99.90
25963;DHT22;13760;52.588;13.406;2022-12-28T09:29:11;5.50;99.90
25963;DHT22;13760;52.588;13.406;2022-12-28T09:31:37;5.60;99.90
25963;DHT22;13760;52.588;13.406;2022-12-28T09:34:06;5.70;99.90
25963;DHT22;13760;52.588;13.406;2022-12-28T09:36:34;5.70;99.90
25963;DHT22;13760;52.588;13.406;2022-12-28T09:39:03;5.70;99.90
25963;DHT22;13760;52.588;13.406;2022-12-28T09:41:40;5.70;99.90
25963;DHT22;13760;52.588;13.406;2022-12-28T09:46:40;5.80;99.90
25963;DHT22;13760;52.588;13.406;2022-12-28T09:49:14;5.80;99.90
25963;DHT22;13760;52.588;13.406;2022-12-28T09:51:53;5.90;99.90
25963;DHT22;13760;52.588;13.406;2022-12-28T09:54:19;5.90;99.90
25963;DHT22;13760;52.588;13.406;2022-12-28T09:56:45;5.90;99.90
25963;DHT22;13760;52.588;13.406;2022-12-28T09:59:16;6.00;99.90
25963;DHT22;13760;52.588;13.406;2022-12-28T10:01:44;6.00;99.90
25963;DHT22;13760;52.588;13.406;2022-12-28T10:04:12;6.10;99.90
25963;DHT22;13760;52.588;13.406;2022-12-28T10:06:38;6.10;99.90
25963;DHT22;13760;52.588;13.406;2022-12-28T10:09:12;6.20;99.90
25963;DHT22;13760;52.588;13.406;2022-12-28T10:11:42;6.20;99.90
25963;DHT22;13760;52.588;13.406;2022-12-28T10:14:26;6.30;99.90
25963;DHT22;13760;52.588;13.406;2022-12-28T10:16:52;6.30;99.90
25963;DHT22;13760;52.588;13.406;2022-12-28T10:19:21;6.30;99.90
25963;DHT22;13760;52.588;13.406;2022-12-28T10:21:55;6.30;99.90
25963;DHT22;13760;52.588;13.406;2022-12-28T10:24:23;6.40;99.90
25963;DHT22;13760;52.588;13.406;2022-12-28T10:26:49;6.40;99.90
25963;DHT22;13760;52.588;13.406;2022-12-28T10:29:18;6.40;99.90
25963;DHT22;13760;52.588;13.406;2022-12-28T10:32:01;6.40;99.90
25963;DHT22;13760;52.588;13.406;2022-12-28T10:34:29;6.50;99.90
25963;DHT22;13760;52.588;13.406;2022-12-28T10:37:02;6.50;99.90
25963;DHT22;13760;52.588;13.406;2022-12-28T10:39:28;6.50;99.90
25963;DHT22;13760;52.588;13.406;2022-12-28T10:41:56;6.50;99.90
25963;DHT22;13760;52.588;13.406;2022-12-28T10:44:31;6.50;99.90
25963;DHT22;13760;52.588;13.406;2022-12-28T10:47:03;6.50;99.90
25963;DHT22;13760;52.588;13.406;2022-12-28T10:49:36;6.50;99.90
25963;DHT22;13760;52.588;13.406;2022-12-28T10:52:19;6.50;99.90
25963;DHT22;13760;52.588;13.406;2022-12-28T10:54:45;6.50;99.90
25963;DHT22;13760;52.588;13.406;2022-12-28T10:59:50;6.60;99.90
25963;DHT22;13760;52.588;13.406;2022-12-28T11:02:26;6.60;99.90
25963;DHT22;13760;52.588;13.406;2022-12-28T11:05:01;6.70;99.90
25963;DHT22;13760;52.588;13.406;2022-12-28T11:07:37;6.70;99.90
25963;DHT22;13760;52.588;13.406;2022-12-28T11:12:48;6.90;99.90
25963;DHT22;13760;52.588;13.406;2022-12-28T11:15:17;6.90;99.90
25963;DHT22;13760;52.588;13.406;2022-12-28T11:17:49;6.90;99.90
25963;DHT22;13760;52.588;13.406;2022-12-28T11:20:19;6.90;99.90
25963;DHT22;13760;52.588;13.406;2022-12-28T11:22:45;7.00;99.90
25963;DHT22;13760;52.588;13.406;2022-12-28T11:25:27;7.00;99.90
25963;DHT22;13760;52.588;13.406;2022-12-28T11:27:53;7.00;99.90
25963;DHT22;13760;52.588;13.406;2022-12-28T11:30:19;7.00;99.90
25963;DHT22;13760;52.588;13.406;2022-12-28T11:32:54;7.10;99.90
25963;DHT22;13760;52.588;13.406;2022-12-28T11:35:28;7.00;99.90
25963;DHT22;13760;52.588;13.406;2022-12-28T11:37:59;7.10;99.90
25963;DHT22;13760;52.588;13.406;2022-12-28T11:40:45;7.10;99.90
25963;DHT22;13760;52.588;13.406;2022-12-28T11:46:02;7.20;99.90
25963;DHT22;13760;52.588;13.406;2022-12-28T11:51:17;7.30;99.90
25963;DHT22;13760;52.588;13.406;2022-12-28T12:01:51;7.50;99.90
25963;DHT22;13760;52.588;13.406;2022-12-28T12:04:29;7.60;99.90
25963;DHT22;13760;52.588;13.406;2022-12-28T12:17:34;7.90;99.90
25963;DHT22;13760;52.588;13.406;2022-12-28T12:20:23;8.00;99.90
25963;DHT22;13760;52.588;13.406;2022-12-28T12:23:01;8.00;99.90
25963;DHT22;13760;52.588;13.406;2022-12-28T12:25:40;8.10;99.90
25963;DHT22;13760;52.588;13.406;2022-12-28T12:31:41;8.10;99.90
25963;DHT22;13760;52.588;13.406;2022-12-28T12:34:28;8.10;99.90
25963;DHT22;13760;52.588;13.406;2022-12-28T12:37:29;8.10;99.90
25963;DHT22;13760;52.588;13.406;2022-12-28T12:42:54;8.10;99.90
25963;DHT22;13760;52.588;13.406;2022-12-28T12:51:01;8.10;99.90
25963;DHT22;13760;52.588;13.406;2022-12-28T12:54:00;8.10;99.90
25963;DHT22;13760;52.588;13.406;2022-12-28T12:56:57;8.10;99.90
25963;DHT22;13760;52.588;13.406;2022-12-28T12:59:47;8.10;99.90
25963;DHT22;13760;52.588;13.406;2022-12-28T13:05:08;8.30;99.90
25963;DHT22;13760;52.588;13.406;2022-12-28T13:07:38;8.40;99.90
25963;DHT22;13760;52.588;13.406;2022-12-28T13:10:04;8.40;99.90
25963;DHT22;13760;52.588;13.406;2022-12-28T13:12:35;8.40;99.90
25963;DHT22;13760;52.588;13.406;2022-12-28T13:15:02;8.50;99.90
25963;DHT22;13760;52.588;13.406;2022-12-28T13:17:28;8.50;99.90
25963;DHT22;13760;52.588;13.406;2022-12-28T13:20:29;8.40;99.90
25963;DHT22;13760;52.588;13.406;2022-12-28T13:22:55;8.40;99.90
25963;DHT22;13760;52.588;13.406;2022-12-28T13:25:29;8.40;99.90
25963;DHT22;13760;52.588;13.406;2022-12-28T13:27:56;8.40;99.90
25963;DHT22;13760;52.588;13.406;2022-12-28T13:30:24;8.30;99.90
25963;DHT22;13760;52.588;13.406;2022-12-28T13:32:58;8.30;99.90
25963;DHT22;13760;52.588;13.406;2022-12-28T13:35:30;8.30;99.90
25963;DHT22;13760;52.588;13.406;2022-12-28T13:40:33;8.40;99.90
25963;DHT22;13760;52.588;13.406;2022-12-28T13:43:16;8.40;99.90
25963;DHT22;13760;52.588;13.406;2022-12-28T13:45:50;8.50;99.90
25963;DHT22;13760;52.588;13.406;2022-12-28T13:48:17;8.50;99.90
25963;DHT22;13760;52.588;13.406;2022-12-28T13:50:42;8.60;99.90
25963;DHT22;13760;52.588;13.406;2022-12-28T13:53:12;8.60;99.90
25963;DHT22;13760;52.588;13.406;2022-12-28T13:55:57;8.70;99.90
25963;DHT22;13760;52.588;13.406;2022-12-28T13:58:48;8.70;99.90
25963;DHT22;13760;52.588;13.406;2022-12-28T14:01:18;8.70;99.90
25963;DHT22;13760;52.588;13.406;2022-12-28T14:03:45;8.70;99.90
25963;DHT22;13760;52.588;13.406;2022-12-28T14:06:13;8.60;99.90
25963;DHT22;13760;52.588;13.406;2022-12-28T14:08:40;8.60;99.90
25963;DHT22;13760;52.588;13.406;2022-12-28T14:11:07;8.50;99.90
25963;DHT22;13760;52.588;13.406;2022-12-28T14:13:34;8.50;99.90
25963;DHT22;13760;52.588;13.406;2022-12-28T14:16:01;8.40;99.90
25963;DHT22;13760;52.588;13.406;2022-12-28T14:18:28;8.40;99.90
25963;DHT22;13760;52.588;13.406;2022-12-28T14:20:58;8.40;99.90
25963;DHT22;13760;52.588;13.406;2022-12-28T14:26:24;8.30;99.90
25963;DHT22;13760;52.588;13.406;2022-12-28T14:28:51;8.30;99.90
25963;DHT22;13760;52.588;13.406;2022-12-28T14:31:29;8.30;99.90
25963;DHT22;13760;52.588;13.406;2022-12-28T14:33:58;8.40;99.90
25963;DHT22;13760;52.588;13.406;2022-12-28T14:36:38;8.30;99.90
25963;DHT22;13760;52.588;13.406;2022-12-28T14:39:05;8.40;99.90
25963;DHT22;13760;52.588;13.406;2022-12-28T14:41:40;8.30;99.90
25963;DHT22;13760;52.588;13.406;2022-12-28T14:44:45;8.30;99.90
25963;DHT22;13760;52.588;13.406;2022-12-28T14:55:31;8.30;99.90
25963;DHT22;13760;52.588;13.406;2022-12-28T14:58:01;8.20;99.90
25963;DHT22;13760;52.588;13.406;2022-12-28T15:00:31;8.30;99.90
25963;DHT22;13760;52.588;13.406;2022-12-28T15:03:16;8.20;99.90
25963;DHT22;13760;52.588;13.406;2022-12-28T15:05:49;8.20;99.90
25963;DHT22;13760;52.588;13.406;2022-12-28T15:08:15;8.30;99.90
25963;DHT22;13760;52.588;13.406;2022-12-28T15:10:46;8.20;99.90
25963;DHT22;13760;52.588;13.406;2022-12-28T15:13:12;8.20;99.90
25963;DHT22;13760;52.588;13.406;2022-12-28T15:15:41;8.20;99.90
25963;DHT22;13760;52.588;13.406;2022-12-28T15:18:06;8.20;99.90
25963;DHT22;13760;52.588;13.406;2022-12-28T15:20:35;8.20;99.90
25963;DHT22;13760;52.588;13.406;2022-12-28T15:23:00;8.10;99.90
25963;DHT22;13760;52.588;13.406;2022-12-28T15:25:26;8.10;99.90
25963;DHT22;13760;52.588;13.406;2022-12-28T15:27:52;8.10;99.90
25963;DHT22;13760;52.588;13.406;2022-12-28T15:30:19;8.10;99.90
25963;DHT22;13760;52.588;13.406;2022-12-28T15:32:45;8.10;99.90
25963;DHT22;13760;52.588;13.406;2022-12-28T15:35:10;8.00;99.90
25963;DHT22;13760;52.588;13.406;2022-12-28T15:37:36;8.00;99.90
25963;DHT22;13760;52.588;13.406;2022-12-28T15:40:02;7.90;99.90
25963;DHT22;13760;52.588;13.406;2022-12-28T15:42:28;7.90;99.90
25963;DHT22;13760;52.588;13.406;2022-12-28T15:44:53;7.90;99.90
25963;DHT22;13760;52.588;13.406;2022-12-28T15:47:19;7.90;99.90
25963;DHT22;13760;52.588;13.406;2022-12-28T15:49:45;7.80;99.90
25963;DHT22;13760;52.588;13.406;2022-12-28T15:52:11;7.90;99.90
25963;DHT22;13760;52.588;13.406;2022-12-28T15:54:37;7.80;99.90
25963;DHT22;13760;52.588;13.406;2022-12-28T15:57:02;7.80;99.90
25963;DHT22;13760;52.588;13.406;2022-12-28T15:59:28;7.80;99.90
25963;DHT22;13760;52.588;13.406;2022-12-28T16:01:57;7.70;99.90
25963;DHT22;13760;52.588;13.406;2022-12-28T16:04:30;7.70;99.90
25963;DHT22;13760;52.588;13.406;2022-12-28T16:06:56;7.60;99.90
25963;DHT22;13760;52.588;13.406;2022-12-28T16:09:21;7.70;99.90
25963;DHT22;13760;52.588;13.406;2022-12-28T16:11:47;7.70;99.90
25963;DHT22;13760;52.588;13.406;2022-12-28T16:14:14;7.80;99.90
25963;DHT22;13760;52.588;13.406;2022-12-28T16:16:40;7.80;99.90
25963;DHT22;13760;52.588;13.406;2022-12-28T16:19:06;7.80;99.90
25963;DHT22;13760;52.588;13.406;2022-12-28T16:21:39;7.80;99.90
25963;DHT22;13760;52.588;13.406;2022-12-28T16:24:05;7.80;99.90
25963;DHT22;13760;52.588;13.406;2022-12-28T16:26:39;7.70;99.90
25963;DHT22;13760;52.588;13.406;2022-12-28T16:29:05;7.70;99.90
25963;DHT22;13760;52.588;13.406;2022-12-28T16:31:33;7.80;99.90
25963;DHT22;13760;52.588;13.406;2022-12-28T16:34:01;7.80;99.90
25963;DHT22;13760;52.588;13.406;2022-12-28T16:36:28;7.80;99.90
25963;DHT22;13760;52.588;13.406;2022-12-28T16:38:53;7.80;99.90
25963;DHT22;13760;52.588;13.406;2022-12-28T16:41:20;7.80;99.90
25963;DHT22;13760;52.588;13.406;2022-12-28T16:43:46;7.80;99.90
25963;DHT22;13760;52.588;13.406;2022-12-28T16:46:12;7.80;99.90
25963;DHT22;13760;52.588;13.406;2022-12-28T16:48:38;7.80;99.90
25963;DHT22;13760;52.588;13.406;2022-12-28T16:51:05;7.90;99.90
25963;DHT22;13760;52.588;13.406;2022-12-28T16:53:31;7.90;99.90
25963;DHT22;13760;52.588;13.406;2022-12-28T16:56:00;7.90;99.90
25963;DHT22;13760;52.588;13.406;2022-12-28T16:58:27;7.90;99.90
25963;DHT22;13760;52.588;13.406;2022-12-28T17:00:53;7.90;99.90
25963;DHT22;13760;52.588;13.406;2022-12-28T17:03:19;8.00;99.90
25963;DHT22;13760;52.588;13.406;2022-12-28T17:05:48;8.00;99.90
25963;DHT22;13760;52.588;13.406;2022-12-28T17:08:13;8.00;99.90
25963;DHT22;13760;52.588;13.406;2022-12-28T17:10:42;8.10;99.90
25963;DHT22;13760;52.588;13.406;2022-12-28T17:13:08;8.00;99.90
25963;DHT22;13760;52.588;13.406;2022-12-28T17:15:33;8.00;99.90
25963;DHT22;13760;52.588;13.406;2022-12-28T17:17:59;8.00;99.90
25963;DHT22;13760;52.588;13.406;2022-12-28T17:20:24;8.10;99.90
25963;DHT22;13760;52.588;13.406;2022-12-28T17:22:52;8.10;99.90
25963;DHT22;13760;52.588;13.406;2022-12-28T17:25:18;8.10;99.90
25963;DHT22;13760;52.588;13.406;2022-12-28T17:27:43;8.10;99.90
25963;DHT22;13760;52.588;13.406;2022-12-28T17:30:09;8.10;99.90
25963;DHT22;13760;52.588;13.406;2022-12-28T17:32:36;8.10;99.90
25963;DHT22;13760;52.588;13.406;2022-12-28T17:35:01;8.10;99.90
25963;DHT22;13760;52.588;13.406;2022-12-28T17:37:27;8.00;99.90